Time;durP1;ratioP1;P1;durP2;ratioP2;P2;SDS_P1;SDS_P2;PMS_P1;PMS_P2;Temp;Humidity;BMP_temperature;BMP_pressure;BME280_temperature;BME280_humidity;BME280_pressure;Samples;Min_cycle;Max_cycle;Signal;HPM_P1;HPM_P2
2023/09/14 00:02:20;;;;;;;11.30;7.50;;;;;;;17.11;100.00;100035.20;104199;1263;60013;-49
2023/09/14 00:04:47;;;;;;;12.40;7.90;;;;;;;17.08;100.00;100032.69;104007;1269;73031;-52
2023/09/14 00:07:15;;;;;;;10.90;7.70;;;;;;;17.05;100.00;100033.09;108242;1263;67880;-53
2023/09/14 00:09:42;;;;;;;15.10;8.40;;;;;;;17.02;100.00;100038.90;108141;1266;71382;-53
2023/09/14 00:12:10;;;;;;;11.00;7.90;;;;;;;16.99;100.00;100035.14;106137;1269;62182;-52
2023/09/14 00:14:37;;;;;;;9.90;7.30;;;;;;;16.96;100.00;100031.71;103784;1263;61002;-50
2023/09/14 00:17:06;;;;;;;13.20;7.50;;;;;;;16.93;100.00;100028.66;103927;1263;73069;-49
2023/09/14 00:19:33;;;;;;;7.60;5.60;;;;;;;16.91;100.00;100028.83;104098;1264;67873;-50
2023/09/14 00:22:00;;;;;;;9.10;6.30;;;;;;;16.88;100.00;100031.34;103674;1269;74763;-51
2023/09/14 00:24:28;;;;;;;12.20;6.30;;;;;;;16.87;100.00;100030.55;104121;1264;62665;-48
2023/09/14 00:26:55;;;;;;;10.70;7.80;;;;;;;16.85;100.00;100023.43;104050;1264;60007;-50
2023/09/14 00:29:22;;;;;;;11.30;7.50;;;;;;;16.83;100.00;100026.69;104147;1270;72990;-49
2023/09/14 00:31:50;;;;;;;10.00;7.70;;;;;;;16.81;100.00;100031.48;104130;1263;68374;-49
2023/09/14 00:34:18;;;;;;;12.00;8.30;;;;;;;16.80;100.00;100027.41;104020;1272;73249;-51
2023/09/14 00:36:46;;;;;;;13.60;7.80;;;;;;;16.78;100.00;100025.92;103791;1264;59773;-50
2023/09/14 00:39:13;;;;;;;8.30;7.40;;;;;;;16.75;100.00;100025.94;104052;1264;59797;-50
2023/09/14 00:41:40;;;;;;;9.30;7.10;;;;;;;16.73;100.00;100028.27;103978;1265;71749;-50
2023/09/14 00:44:08;;;;;;;12.80;8.60;;;;;;;16.69;100.00;100026.00;103997;1263;67280;-50
2023/09/14 00:46:35;;;;;;;13.10;7.70;;;;;;;16.65;100.00;100018.52;104081;1266;71491;-48
2023/09/14 00:49:02;;;;;;;10.50;8.70;;;;;;;16.61;100.00;100016.90;104081;1263;61734;-50
2023/09/14 00:51:31;;;;;;;12.40;8.10;;;;;;;16.59;100.00;100009.98;103904;1270;59962;-49
2023/09/14 00:53:58;;;;;;;8.80;6.90;;;;;;;16.55;100.00;100006.65;104055;1264;71642;-49
2023/09/14 00:56:26;;;;;;;7.90;6.50;;;;;;;16.51;100.00;100002.52;104140;1264;67699;-49
2023/09/14 00:58:54;;;;;;;14.40;7.40;;;;;;;16.50;100.00;100003.05;104104;1272;72658;-49
2023/09/14 01:01:22;;;;;;;11.40;7.80;;;;;;;16.49;100.00;100008.71;104049;1272;61726;-48
2023/09/14 01:03:52;;;;;;;11.20;7.40;;;;;;;16.48;100.00;100004.95;108258;1263;60103;-53
2023/09/14 01:06:20;;;;;;;14.10;8.10;;;;;;;16.47;100.00;100005.56;108236;1263;73545;-51
2023/09/14 01:08:48;;;;;;;17.60;8.50;;;;;;;16.45;100.00;100010.36;108216;1263;65568;-50
2023/09/14 01:11:15;;;;;;;12.00;8.30;;;;;;;16.44;100.00;100010.84;108214;1263;71098;-52
2023/09/14 01:14:08;;;;;;;10.60;7.80;;;;;;;16.42;100.00;100004.66;108229;1263;58765;-51
2023/09/14 01:16:59;;;;;;;13.60;7.50;;;;;;;16.40;100.00;100002.45;108207;1263;61811;-52
2023/09/14 01:19:33;;;;;;;11.20;8.60;;;;;;;16.37;100.00;99998.80;108198;1266;71762;-51
2023/09/14 01:22:39;;;;;;;10.70;7.30;;;;;;;16.33;100.00;99995.48;108311;1264;67286;-49
2023/09/14 01:25:10;;;;;;;12.10;6.80;;;;;;;16.27;100.00;99996.61;108310;1264;71903;-52
2023/09/14 01:27:37;;;;;;;8.00;7.20;;;;;;;16.22;100.00;99991.52;107935;1267;62359;-50
2023/09/14 01:30:06;;;;;;;12.60;5.90;;;;;;;16.18;100.00;99989.94;108233;1263;58890;-50
2023/09/14 01:32:33;;;;;;;9.50;5.70;;;;;;;16.16;100.00;99986.11;108184;1263;73100;-53
2023/09/14 01:35:01;;;;;;;7.30;6.70;;;;;;;16.14;100.00;99986.84;104118;1263;67644;-49
2023/09/14 01:37:28;;;;;;;9.30;5.40;;;;;;;16.13;100.00;99985.79;104466;1269;71421;-48
2023/09/14 01:39:56;;;;;;;10.30;6.10;;;;;;;16.11;100.00;99979.20;103679;1267;61752;-50
2023/09/14 01:42:24;;;;;;;9.80;5.80;;;;;;;16.10;100.00;99976.20;106398;1264;60013;-48
2023/09/14 01:44:51;;;;;;;7.70;6.80;;;;;;;16.08;100.00;99973.07;103651;1264;72876;-50
2023/09/14 01:47:18;;;;;;;8.30;6.50;;;;;;;16.08;100.00;99973.26;103829;1274;65512;-49
2023/09/14 01:49:46;;;;;;;21.00;8.50;;;;;;;16.08;100.00;99973.06;104209;1266;72505;-49
2023/09/14 01:52:13;;;;;;;10.10;7.80;;;;;;;16.07;100.00;99971.52;104079;1268;59825;-48
2023/09/14 01:54:40;;;;;;;8.80;7.00;;;;;;;16.07;100.00;99970.48;104103;1263;59950;-49
2023/09/14 01:57:08;;;;;;;9.60;7.80;;;;;;;16.06;100.00;99978.14;104007;1271;73425;-49
2023/09/14 01:59:35;;;;;;;9.20;6.00;;;;;;;16.05;100.00;99978.59;105072;1264;66915;-51
2023/09/14 02:02:03;;;;;;;11.80;7.00;;;;;;;16.03;100.00;99979.81;104146;1270;74767;-48
2023/09/14 02:04:31;;;;;;;9.40;6.00;;;;;;;16.00;100.00;99976.72;103926;1267;60634;-49
2023/09/14 02:06:58;;;;;;;8.80;7.00;;;;;;;15.97;100.00;99977.83;104000;1264;61014;-52
2023/09/14 02:09:26;;;;;;;9.80;6.10;;;;;;;15.95;100.00;99985.20;104189;1263;73486;-49
2023/09/14 02:11:53;;;;;;;9.00;4.60;;;;;;;15.94;100.00;99980.42;104087;1260;66473;-52
2023/09/14 02:14:20;;;;;;;9.60;5.40;;;;;;;15.92;100.00;99986.14;104150;1260;73478;-49
2023/09/14 02:16:47;;;;;;;12.40;6.90;;;;;;;15.89;100.00;99985.26;104019;1260;60071;-52
2023/09/14 02:19:15;;;;;;;10.70;6.00;;;;;;;15.86;100.00;99983.45;104115;1261;59840;-52
2023/09/14 02:21:42;;;;;;;10.10;6.50;;;;;;;15.82;100.00;99982.59;104035;1260;71251;-49
2023/09/14 02:24:10;;;;;;;7.70;6.60;;;;;;;15.80;100.00;99975.02;103980;1260;71195;-49
2023/09/14 02:26:37;;;;;;;7.70;6.60;;;;;;;15.77;100.00;99976.45;104145;1266;72170;-52
2023/09/14 02:29:05;;;;;;;13.10;6.50;;;;;;;15.70;100.00;99975.06;104108;1263;61116;-52
2023/09/14 02:31:32;;;;;;;8.30;6.20;;;;;;;15.65;100.00;99975.09;104107;1260;59652;-48
2023/09/14 02:33:59;;;;;;;7.10;5.40;;;;;;;15.61;100.00;99976.27;104383;1259;71777;-51
2023/09/14 02:36:27;;;;;;;6.30;5.20;;;;;;;15.57;100.00;99973.84;104355;1263;65503;-52
2023/09/14 02:38:55;;;;;;;9.40;5.60;;;;;;;15.50;100.00;99978.52;104517;1260;73158;-49
2023/09/14 02:41:22;;;;;;;6.80;5.20;;;;;;;15.45;100.00;99978.12;104387;1258;61651;-52
2023/09/14 02:43:50;;;;;;;7.60;5.20;;;;;;;15.42;100.00;99974.21;104323;1264;59675;-49
2023/09/14 02:46:17;;;;;;;6.10;4.80;;;;;;;15.40;100.00;99976.87;104328;1257;73018;-49
2023/09/14 02:48:45;;;;;;;6.20;4.60;;;;;;;15.39;100.00;99980.15;104157;1262;65624;-51
2023/09/14 02:51:12;;;;;;;6.90;4.20;;;;;;;15.39;100.00;99975.31;104508;1257;72639;-50
2023/09/14 02:53:41;;;;;;;5.90;5.30;;;;;;;15.39;100.00;99979.27;104165;1257;59706;-54
2023/09/14 02:56:09;;;;;;;7.80;5.70;;;;;;;15.40;100.00;99979.38;105302;1263;59400;-49
2023/09/14 02:58:36;;;;;;;9.00;6.10;;;;;;;15.41;100.00;99979.16;104370;1261;73040;-49
2023/09/14 03:01:10;;;;;;;7.30;6.00;;;;;;;15.42;100.00;99975.66;104478;1258;67433;-53
2023/09/14 03:03:39;;;;;;;8.60;6.10;;;;;;;15.43;100.00;99972.52;105515;1262;71482;-49
2023/09/14 03:06:07;;;;;;;9.90;6.40;;;;;;;15.43;100.00;99968.20;106242;1260;60517;-48
2023/09/14 03:08:34;;;;;;;6.80;5.00;;;;;;;15.41;100.00;99969.04;104472;1259;60539;-49
2023/09/14 03:11:02;;;;;;;8.90;5.50;;;;;;;15.38;100.00;99966.85;104233;1265;74294;-50
2023/09/14 03:13:29;;;;;;;5.80;5.10;;;;;;;15.39;100.00;99971.00;104445;1265;65886;-48
2023/09/14 03:15:58;;;;;;;8.10;5.60;;;;;;;15.39;100.00;99978.70;104676;1263;73096;-53
2023/09/14 03:18:26;;;;;;;8.90;5.80;;;;;;;15.42;100.00;99977.83;105121;1264;60396;-50
2023/09/14 03:20:54;;;;;;;7.40;5.60;;;;;;;15.43;100.00;99983.52;104564;1263;60331;-50
2023/09/14 03:23:22;;;;;;;8.40;5.40;;;;;;;15.46;100.00;99981.93;104607;1262;73790;-52
2023/09/14 03:25:50;;;;;;;5.40;4.90;;;;;;;15.48;100.00;99984.70;105684;1262;65813;-50
2023/09/14 03:28:18;;;;;;;7.80;5.10;;;;;;;15.50;100.00;99985.99;104887;1265;73192;-49
2023/09/14 03:30:46;;;;;;;9.40;4.80;;;;;;;15.50;100.00;99986.66;104960;1257;60582;-50
2023/09/14 03:33:13;;;;;;;14.90;6.40;;;;;;;15.51;100.00;99989.13;106047;1257;61025;-50
2023/09/14 03:35:41;;;;;;;10.30;6.00;;;;;;;15.53;100.00;99988.50;104547;1257;73836;-49
2023/09/14 03:38:09;;;;;;;8.20;6.10;;;;;;;15.55;100.00;99986.81;104431;1265;66562;-51
2023/09/14 03:40:36;;;;;;;14.70;6.80;;;;;;;15.56;100.00;99982.05;104830;1260;71569;-50
2023/09/14 03:43:03;;;;;;;8.10;6.20;;;;;;;15.55;100.00;99978.66;104560;1262;60581;-51
2023/09/14 03:45:31;;;;;;;9.10;6.40;;;;;;;15.51;100.00;99975.56;104489;1263;60562;-50
2023/09/14 03:47:58;;;;;;;5.80;5.00;;;;;;;15.49;100.00;99975.76;104629;1257;72633;-51
2023/09/14 03:50:26;;;;;;;9.50;6.00;;;;;;;15.45;100.00;99978.88;104237;1265;65715;-51
2023/09/14 03:52:53;;;;;;;11.80;5.80;;;;;;;15.42;100.00;99979.27;104457;1257;72948;-52
2023/09/14 03:55:21;;;;;;;6.50;5.10;;;;;;;15.39;100.00;99977.08;104517;1260;61438;-51
2023/09/14 03:57:48;;;;;;;6.40;4.70;;;;;;;15.38;100.00;99974.12;104647;1257;61266;-50
2023/09/14 04:00:16;;;;;;;10.90;5.80;;;;;;;15.37;100.00;99977.81;104344;1257;73958;-50
2023/09/14 04:02:44;;;;;;;11.50;5.00;;;;;;;15.36;100.00;99979.68;108694;1257;65929;-50
2023/09/14 04:05:15;;;;;;;6.00;5.40;;;;;;;15.36;100.00;99989.59;108572;1257;71299;-51
2023/09/14 04:07:44;;;;;;;10.80;6.50;;;;;;;15.38;100.00;99993.98;108591;1260;60510;-52
2023/09/14 04:10:11;;;;;;;7.10;5.60;;;;;;;15.40;100.00;99990.80;108866;1258;59661;-51
2023/09/14 04:12:42;;;;;;;11.70;6.00;;;;;;;15.38;100.00;99988.02;108777;1254;73771;-52
2023/09/14 04:15:09;;;;;;;19.20;7.00;;;;;;;15.37;100.00;99986.49;108820;1254;66866;-51
2023/09/14 04:17:37;;;;;;;9.70;6.00;;;;;;;15.37;100.00;99992.42;108783;1257;72481;-51
2023/09/14 04:20:09;;;;;;;8.30;5.00;;;;;;;15.39;100.00;99989.61;108758;1254;60403;-49
2023/09/14 04:22:37;;;;;;;9.50;5.50;;;;;;;15.42;100.00;99990.98;108705;1254;58432;-50
2023/09/14 04:25:06;;;;;;;6.10;4.30;;;;;;;15.46;100.00;99986.79;108891;1254;73863;-50
2023/09/14 04:27:34;;;;;;;7.60;4.50;;;;;;;15.51;100.00;99990.09;106285;1262;67461;-51
2023/09/14 04:30:03;;;;;;;6.10;4.80;;;;;;;15.57;100.00;99986.49;104524;1254;71207;-50
2023/09/14 04:32:30;;;;;;;7.60;5.40;;;;;;;15.63;100.00;99983.16;104463;1254;60587;-52
2023/09/14 04:34:58;;;;;;;12.30;5.50;;;;;;;15.70;100.00;99983.40;104657;1254;60472;-51
2023/09/14 04:37:25;;;;;;;15.20;6.20;;;;;;;15.82;100.00;99984.28;104707;1259;73569;-50
2023/09/14 04:39:52;;;;;;;14.20;6.00;;;;;;;15.94;100.00;99982.21;104808;1259;65535;-52
2023/09/14 04:42:20;;;;;;;9.30;5.60;;;;;;;16.06;100.00;99985.92;104488;1262;71077;-50
2023/09/14 04:44:50;;;;;;;9.70;5.20;;;;;;;16.16;100.00;99988.29;104360;1254;61860;-50
2023/09/14 04:47:18;;;;;;;9.70;4.80;;;;;;;16.26;100.00;99990.16;106383;1254;60469;-52
2023/09/14 04:49:45;;;;;;;6.70;5.10;;;;;;;16.36;100.00;99990.95;104649;1259;73944;-50
2023/09/14 04:52:13;;;;;;;8.20;6.50;;;;;;;16.44;100.00;99988.00;104548;1254;66831;-51
2023/09/14 04:54:40;;;;;;;12.20;5.40;;;;;;;16.52;100.00;99990.17;104456;1254;71104;-52
2023/09/14 04:57:07;;;;;;;13.20;6.20;;;;;;;16.59;100.00;99987.86;104650;1257;62128;-51
2023/09/14 04:59:35;;;;;;;12.80;5.70;;;;;;;16.66;100.00;99989.39;104734;1257;59723;-51
2023/09/14 05:02:03;;;;;;;9.90;6.20;;;;;;;16.72;100.00;99985.91;104535;1259;73822;-50
2023/09/14 05:04:30;;;;;;;11.10;6.70;;;;;;;16.78;100.00;99993.11;104508;1259;69578;-51
2023/09/14 05:06:58;;;;;;;10.20;5.40;;;;;;;16.84;100.00;99995.23;104677;1261;72741;-50
2023/09/14 05:09:26;;;;;;;8.50;5.60;;;;;;;16.90;100.00;99992.58;104555;1254;60618;-51
2023/09/14 05:11:53;;;;;;;12.50;5.50;;;;;;;16.98;100.00;99992.24;104388;1261;60591;-51
2023/09/14 05:14:20;;;;;;;13.50;5.30;;;;;;;17.04;100.00;99993.24;104173;1262;74342;-50
2023/09/14 05:16:48;;;;;;;8.40;4.90;;;;;;;17.07;100.00;99993.59;104477;1262;67336;-51
2023/09/14 05:19:15;;;;;;;8.10;5.50;;;;;;;17.08;100.00;99996.05;104550;1259;74670;-51
2023/09/14 05:21:42;;;;;;;8.40;6.20;;;;;;;17.10;100.00;99993.05;104529;1259;60503;-53
2023/09/14 05:24:10;;;;;;;14.70;6.00;;;;;;;17.13;100.00;99991.34;108956;1254;60040;-53
2023/09/14 05:26:38;;;;;;;14.30;6.00;;;;;;;17.15;100.00;99987.76;108793;1254;73799;-52
2023/09/14 05:29:06;;;;;;;9.80;6.40;;;;;;;17.17;100.00;99987.58;106755;1262;65803;-51
2023/09/14 05:31:33;;;;;;;7.90;6.10;;;;;;;17.19;100.00;99991.43;104866;1262;72901;-52
2023/09/14 05:34:01;;;;;;;9.80;6.20;;;;;;;17.21;100.00;99986.56;105315;1254;60456;-53
2023/09/14 05:36:28;;;;;;;12.60;5.40;;;;;;;17.23;100.00;99985.88;105056;1262;60546;-51
2023/09/14 05:38:55;;;;;;;11.50;6.80;;;;;;;17.26;100.00;99981.30;104856;1262;72910;-51
2023/09/14 05:41:23;;;;;;;14.90;6.90;;;;;;;17.30;100.00;99981.20;104818;1260;65592;-50
2023/09/14 05:43:51;;;;;;;7.30;5.20;;;;;;;17.36;100.00;99982.96;104843;1260;71245;-51
2023/09/14 05:46:18;;;;;;;9.10;5.20;;;;;;;17.43;100.00;99985.00;104739;1254;61648;-50
2023/09/14 05:48:46;;;;;;;8.60;4.10;;;;;;;17.51;100.00;99981.50;104907;1256;60563;-49
2023/09/14 05:51:14;;;;;;;10.60;4.10;;;;;;;17.63;100.00;99978.27;104997;1254;73901;-50
2023/09/14 05:53:41;;;;;;;6.50;4.80;;;;;;;17.76;100.00;99977.85;104842;1254;66972;-51
2023/09/14 05:56:09;;;;;;;12.70;6.40;;;;;;;17.89;100.00;99977.04;108196;1255;72385;-52
2023/09/14 05:58:36;;;;;;;9.70;5.60;;;;;;;18.04;100.00;99976.85;104847;1260;60558;-51
2023/09/14 06:01:04;;;;;;;19.40;6.60;;;;;;;18.19;100.00;99977.70;105132;1254;60964;-51
2023/09/14 06:03:32;;;;;;;15.20;6.10;;;;;;;18.34;100.00;99975.09;104870;1262;74233;-52
2023/09/14 06:05:59;;;;;;;7.10;4.70;;;;;;;18.48;100.00;99972.00;104724;1257;66882;-51
2023/09/14 06:08:26;;;;;;;12.40;4.80;;;;;;;18.62;100.00;99969.09;104473;1260;71405;-50
2023/09/14 06:10:54;;;;;;;9.20;5.50;;;;;;;18.75;100.00;99968.59;104645;1254;60451;-53
2023/09/14 06:13:21;;;;;;;9.50;5.70;;;;;;;18.88;100.00;99961.80;104690;1254;60674;-52
2023/09/14 06:15:49;;;;;;;8.10;4.20;;;;;;;19.01;100.00;99960.20;104909;1260;72952;-52
2023/09/14 06:18:17;;;;;;;7.40;4.80;;;;;;;19.12;100.00;99961.10;104622;1259;65709;-52
2023/09/14 06:20:44;;;;;;;17.80;5.50;;;;;;;19.23;100.00;99962.73;104874;1257;73405;-49
2023/09/14 06:23:11;;;;;;;8.40;4.50;;;;;;;19.35;100.00;99960.89;104695;1260;61779;-51
2023/09/14 06:25:39;;;;;;;11.30;4.70;;;;;;;19.47;100.00;99958.86;104625;1254;60984;-52
2023/09/14 06:28:06;;;;;;;7.10;3.40;;;;;;;19.58;100.00;99954.48;104420;1254;73826;-51
2023/09/14 06:30:34;;;;;;;6.70;3.60;;;;;;;19.69;100.00;99955.26;106770;1254;67512;-49
2023/09/14 06:33:01;;;;;;;11.00;4.00;;;;;;;19.77;100.00;99956.58;104603;1260;72640;-49
2023/09/14 06:35:28;;;;;;;6.30;4.00;;;;;;;19.84;100.00;99958.65;104989;1255;60512;-52
2023/09/14 06:37:56;;;;;;;8.60;3.50;;;;;;;19.92;100.00;99959.31;104752;1253;60556;-51
2023/09/14 06:40:24;;;;;;;5.10;3.60;;;;;;;20.00;100.00;99959.48;104406;1257;73886;-52
2023/09/14 06:42:51;;;;;;;13.90;3.50;;;;;;;20.09;100.00;99954.96;108909;1254;65843;-52
2023/09/14 06:45:19;;;;;;;14.80;4.10;;;;;;;20.18;100.00;99952.52;108908;1255;72915;-52
2023/09/14 06:47:46;;;;;;;7.40;3.60;;;;;;;20.28;100.00;99952.02;108919;1253;60117;-52
2023/09/14 06:50:14;;;;;;;7.80;2.90;;;;;;;20.37;100.00;99951.59;108831;1258;59293;-52
2023/09/14 06:52:41;;;;;;;7.70;3.00;;;;;;;20.49;100.00;99948.46;108922;1256;73852;-52
2023/09/14 06:55:09;;;;;;;11.30;3.10;;;;;;;20.60;100.00;99947.61;108866;1255;65863;-52
2023/09/14 06:57:36;;;;;;;13.50;3.60;;;;;;;20.71;100.00;99941.23;108842;1254;72067;-52
2023/09/14 07:00:08;;;;;;;10.40;3.20;;;;;;;20.82;100.00;99940.08;108983;1258;58750;-52
2023/09/14 07:02:35;;;;;;;5.30;3.50;;;;;;;20.93;100.00;99944.42;108810;1254;59126;-52
2023/09/14 07:05:04;;;;;;;6.90;3.80;;;;;;;21.01;100.00;99942.19;108904;1254;72572;-52
2023/09/14 07:07:31;;;;;;;8.60;4.30;;;;;;;21.10;100.00;99940.30;108979;1254;67515;-52
2023/09/14 07:09:58;;;;;;;5.40;4.40;;;;;;;21.19;100.00;99939.17;108961;1255;72715;-53
2023/09/14 07:12:26;;;;;;;6.00;3.20;;;;;;;21.29;100.00;99939.05;108799;1254;58917;-53
2023/09/14 07:14:53;;;;;;;9.30;4.30;;;;;;;21.37;100.00;99939.57;108912;1255;60004;-52
2023/09/14 07:17:21;;;;;;;9.00;4.20;;;;;;;21.46;100.00;99941.30;108938;1254;73710;-51
2023/09/14 07:19:49;;;;;;;8.10;4.20;;;;;;;21.56;100.00;99938.73;108957;1254;66763;-52
2023/09/14 07:22:18;;;;;;;3.90;3.60;;;;;;;21.65;100.00;99937.88;108945;1254;71461;-53
2023/09/14 07:24:46;;;;;;;7.30;3.70;;;;;;;21.76;100.00;99937.27;107464;1260;60178;-52
2023/09/14 07:27:15;;;;;;;10.20;4.80;;;;;;;21.84;100.00;99938.48;104674;1260;60454;-50
2023/09/14 07:29:42;;;;;;;6.30;3.70;;;;;;;21.93;100.00;99940.83;105454;1259;73878;-53
2023/09/14 07:32:10;;;;;;;11.60;5.20;;;;;;;22.01;100.00;99938.66;104645;1260;65566;-52
2023/09/14 07:34:37;;;;;;;4.00;3.00;;;;;;;22.09;100.00;99943.58;104770;1260;71884;-52
2023/09/14 07:37:04;;;;;;;5.60;3.70;;;;;;;22.15;100.00;99940.76;104807;1256;60455;-53
2023/09/14 07:39:32;;;;;;;5.60;3.10;;;;;;;22.22;100.00;99940.27;104615;1263;59861;-51
2023/09/14 07:42:00;;;;;;;5.40;4.00;;;;;;;22.29;100.00;99938.17;104770;1261;74388;-51
2023/09/14 07:44:27;;;;;;;6.20;3.90;;;;;;;22.36;100.00;99936.96;104565;1256;67337;-51
2023/09/14 07:46:54;;;;;;;11.50;3.80;;;;;;;22.43;100.00;99939.20;104661;1260;73120;-52
2023/09/14 07:49:22;;;;;;;12.30;3.20;;;;;;;22.51;100.00;99934.47;104710;1260;61042;-52
2023/09/14 07:51:49;;;;;;;8.80;2.70;;;;;;;22.58;100.00;99930.88;104552;1258;60537;-53
2023/09/14 07:54:17;;;;;;;6.60;2.40;;;;;;;22.64;100.00;99928.38;104535;1259;72784;-53
2023/09/14 07:56:44;;;;;;;6.00;2.30;;;;;;;22.72;100.00;99923.36;104945;1260;65645;-51
2023/09/14 07:59:12;;;;;;;5.20;2.00;;;;;;;22.77;100.00;99929.79;104910;1257;72557;-52
2023/09/14 08:01:39;;;;;;;7.20;2.10;;;;;;;22.84;100.00;99929.48;104439;1258;60476;-54
2023/09/14 08:04:06;;;;;;;9.40;2.50;;;;;;;22.89;100.00;99928.60;104620;1260;60495;-53
2023/09/14 08:06:34;;;;;;;10.90;3.00;;;;;;;22.95;100.00;99930.02;105615;1260;72884;-55
2023/09/14 08:09:02;;;;;;;6.70;2.80;;;;;;;23.02;100.00;99932.10;104535;1260;67026;-52
2023/09/14 08:11:31;;;;;;;4.20;2.50;;;;;;;23.09;100.00;99935.28;104662;1263;72866;-52
2023/09/14 08:13:58;;;;;;;5.50;1.90;;;;;;;23.16;100.00;99936.96;104468;1257;60378;-53
2023/09/14 08:16:30;;;;;;;3.30;2.20;;;;;;;23.24;100.00;99940.14;104631;1257;60449;-52
2023/09/14 08:18:59;;;;;;;8.50;2.80;;;;;;;23.32;100.00;99934.77;105207;1262;72579;-51
2023/09/14 08:21:26;;;;;;;3.50;1.70;;;;;;;23.40;100.00;99934.00;105016;1262;65968;-53
2023/09/14 08:23:53;;;;;;;4.10;2.10;;;;;;;23.47;100.00;99932.40;104987;1263;72773;-53
2023/09/14 08:26:21;;;;;;;5.40;2.30;;;;;;;23.55;100.00;99932.02;104939;1261;60709;-51
2023/09/14 08:28:48;;;;;;;7.90;2.20;;;;;;;23.62;100.00;99931.83;105177;1261;60367;-53
2023/09/14 08:31:15;;;;;;;12.20;3.00;;;;;;;23.69;100.00;99930.00;104900;1261;73745;-52
2023/09/14 08:33:43;;;;;;;6.60;2.20;;;;;;;23.77;100.00;99927.20;105799;1260;67334;-53
2023/09/14 08:36:11;;;;;;;9.00;2.30;;;;;;;23.85;100.00;99927.52;104772;1260;72747;-53
2023/09/14 08:38:38;;;;;;;2.80;1.50;;;;;;;23.92;100.00;99921.91;104987;1264;60761;-52
2023/09/14 08:41:12;;;;;;;7.70;1.70;;;;;;;23.98;100.00;99923.63;104784;1258;60636;-52
2023/09/14 08:43:40;;;;;;;11.70;1.90;;;;;;;24.05;100.00;99924.73;105120;1257;73877;-51
2023/09/14 08:46:08;;;;;;;5.90;1.60;;;;;;;24.14;100.00;99927.16;104868;1257;68022;-53
2023/09/14 08:48:38;;;;;;;2.90;1.60;;;;;;;24.22;100.00;99928.36;108717;1258;73725;-50
2023/09/14 08:51:05;;;;;;;5.80;2.50;;;;;;;24.30;100.00;99929.77;106122;1260;60473;-51
2023/09/14 08:53:33;;;;;;;3.30;1.50;;;;;;;24.37;100.00;99925.86;104857;1258;61122;-51
2023/09/14 08:56:01;;;;;;;8.90;1.40;;;;;;;24.44;100.00;99926.48;104881;1263;72653;-51
2023/09/14 08:58:29;;;;;;;7.20;1.80;;;;;;;24.51;100.00;99926.83;104673;1258;67104;-52
2023/09/14 09:00:56;;;;;;;10.30;1.70;;;;;;;24.59;100.00;99927.67;105601;1261;72602;-53
2023/09/14 09:03:25;;;;;;;5.40;1.80;;;;;;;24.65;100.00;99928.11;104992;1262;60585;-50
2023/09/14 09:05:52;;;;;;;14.40;1.80;;;;;;;24.72;100.00;99929.75;105007;1260;60408;-51
2023/09/14 09:08:20;;;;;;;3.30;1.30;;;;;;;24.78;100.00;99933.65;104825;1257;79025;-51
2023/09/14 09:10:47;;;;;;;5.80;1.40;;;;;;;24.84;100.00;99930.46;104795;1261;66854;-52
2023/09/14 09:13:15;;;;;;;6.00;1.30;;;;;;;24.87;100.00;99928.48;104577;1260;71515;-51
2023/09/14 09:15:42;;;;;;;4.80;1.50;;;;;;;24.88;100.00;99929.02;106562;1260;60457;-52
2023/09/14 09:18:11;;;;;;;7.30;1.30;;;;;;;24.86;100.00;99926.59;105054;1260;60502;-52
2023/09/14 09:20:40;;;;;;;5.70;1.50;;;;;;;24.84;100.00;99922.37;104792;1257;73821;-53
2023/09/14 09:23:08;;;;;;;4.60;1.20;;;;;;;24.86;100.00;99923.31;107092;1260;65944;-51
2023/09/14 09:25:47;;;;;;;4.30;2.40;;;;;;;24.89;100.00;99918.26;104928;1257;72744;-51
2023/09/14 09:28:15;;;;;;;10.00;3.00;;;;;;;24.94;100.00;99917.93;108863;1257;58920;-53
2023/09/14 09:30:44;;;;;;;5.90;2.10;;;;;;;24.99;100.00;99915.39;107192;1260;60638;-52
2023/09/14 09:33:12;;;;;;;5.40;1.50;;;;;;;25.03;100.00;99914.04;105063;1257;72640;-51
2023/09/14 09:35:41;;;;;;;3.30;1.20;;;;;;;25.09;100.00;99910.27;108116;1260;65651;-50
2023/09/14 09:38:13;;;;;;;7.20;1.90;;;;;;;25.15;100.00;99907.58;105013;1262;71457;-50
2023/09/14 09:40:43;;;;;;;3.60;1.70;;;;;;;25.22;100.00;99908.33;108812;1255;58859;-53
2023/09/14 09:43:14;;;;;;;3.90;1.40;;;;;;;25.28;100.00;99907.61;108775;1256;60100;-54
2023/09/14 09:45:42;;;;;;;6.20;1.50;;;;;;;25.35;100.00;99905.58;108772;1256;73856;-53
2023/09/14 09:48:09;;;;;;;4.20;1.60;;;;;;;25.43;100.00;99904.07;108721;1257;65828;-53
2023/09/14 09:50:36;;;;;;;5.30;1.60;;;;;;;25.49;100.00;99906.34;108767;1257;73181;-53
2023/09/14 09:53:14;;;;;;;11.10;1.70;;;;;;;25.55;100.00;99908.35;108764;1257;58762;-54
2023/09/14 09:55:43;;;;;;;1.80;1.60;;;;;;;25.62;100.00;99914.08;108937;1254;58771;-52
2023/09/14 09:58:10;;;;;;;3.90;1.90;;;;;;;25.69;100.00;99910.75;108868;1255;73931;-52
2023/09/14 10:00:39;;;;;;;6.20;1.90;;;;;;;25.75;100.00;99912.51;108872;1254;65987;-53
2023/09/14 10:03:07;;;;;;;5.10;1.70;;;;;;;25.81;100.00;99915.89;108853;1257;73765;-53
2023/09/14 10:05:39;;;;;;;3.20;2.20;;;;;;;25.87;100.00;99911.73;108699;1257;60504;-53
2023/09/14 10:08:12;;;;;;;5.70;1.50;;;;;;;25.92;100.00;99908.39;108828;1257;60077;-53
2023/09/14 10:10:40;;;;;;;2.10;1.30;;;;;;;25.97;100.00;99908.05;106130;1259;74033;-52
2023/09/14 10:13:08;;;;;;;4.40;1.80;;;;;;;26.03;100.00;99903.93;104653;1260;65768;-51
2023/09/14 10:15:35;;;;;;;7.60;1.40;;;;;;;26.08;100.00;99905.70;108719;1255;72660;-53
2023/09/14 10:18:03;;;;;;;7.40;2.70;;;;;;;26.14;100.00;99904.18;107744;1257;59057;-52
2023/09/14 10:20:30;;;;;;;9.60;2.30;;;;;;;26.19;100.00;99901.23;106822;1257;60424;-52
2023/09/14 10:22:58;;;;;;;5.00;2.00;;;;;;;26.22;100.00;99903.81;104694;1254;73898;-52
2023/09/14 10:25:25;;;;;;;9.20;2.60;;;;;;;26.26;100.00;99900.06;104669;1261;68018;-52
2023/09/14 10:27:53;;;;;;;5.50;1.40;;;;;;;26.30;100.00;99898.48;104609;1262;71948;-51
2023/09/14 10:30:20;;;;;;;6.50;2.00;;;;;;;26.34;100.00;99891.73;105381;1259;60460;-52
2023/09/14 10:32:49;;;;;;;4.80;2.10;;;;;;;26.40;100.00;99894.48;104859;1258;60543;-52
2023/09/14 10:35:17;;;;;;;2.60;2.20;;;;;;;26.44;100.00;99895.33;105369;1260;73084;-52
2023/09/14 10:37:45;;;;;;;7.00;2.30;;;;;;;26.47;100.00;99899.36;104683;1260;67516;-51
2023/09/14 10:40:13;;;;;;;3.80;3.40;;;;;;;26.51;100.00;99906.30;104704;1257;71528;-51
2023/09/14 10:42:43;;;;;;;3.60;1.80;;;;;;;26.53;100.00;99903.44;109012;1254;58912;-52
2023/09/14 10:45:11;;;;;;;7.10;3.40;;;;;;;26.55;100.00;99902.50;108800;1256;60728;-53
2023/09/14 10:47:48;;;;;;;8.60;3.10;;;;;;;26.55;100.00;99899.00;108913;1254;76370;-52
2023/09/14 10:50:16;;;;;;;9.60;2.40;;;;;;;26.56;100.00;99895.52;108857;1254;68987;-53
2023/09/14 10:52:43;;;;;;;5.60;2.60;;;;;;;26.60;100.00;99897.95;108792;1257;73172;-52
2023/09/14 10:55:11;;;;;;;4.60;3.00;;;;;;;26.61;100.00;99892.64;108736;1261;59143;-52
2023/09/14 10:57:40;;;;;;;3.80;2.10;;;;;;;26.63;100.00;99898.15;108869;1257;58810;-53
2023/09/14 11:00:09;;;;;;;2.80;2.50;;;;;;;26.64;100.00;99896.83;108767;1255;75223;-53
2023/09/14 11:02:55;;;;;;;6.10;2.60;;;;;;;26.65;100.00;99892.31;104998;1256;65021;-52
2023/09/14 11:05:49;;;;;;;4.50;3.00;;;;;;;26.67;100.00;99896.55;104984;1261;72670;-52
2023/09/14 11:08:18;;;;;;;3.30;2.50;;;;;;;26.69;100.00;99894.61;104807;1260;196387;-52
2023/09/14 11:12:27;;;;;;;5.60;2.90;;;;;;;26.72;100.00;99922.83;101856;1292;600406;-53
2023/09/14 11:15:21;;;;;;;5.60;2.10;;;;;;;26.69;100.00;99911.52;104128;1266;60626;-51
2023/09/14 11:17:53;;;;;;;6.90;2.90;;;;;;;26.71;100.00;99905.68;105054;1271;60038;-51
2023/09/14 11:20:27;;;;;;;6.30;2.90;;;;;;;26.71;100.00;99904.67;104001;1267;72459;-52
2023/09/14 11:23:02;;;;;;;4.70;2.90;;;;;;;26.71;100.00;99900.50;105533;1263;66952;-52